地図

経路データ

SID SEASON NUMBER BASIN SUBBASIN NAME ISO_TIME NATURE LAT LON WMO_WIND WMO_PRES WMO_AGENCY TRACK_TYPE DIST2LAND LANDFALL IFLAG USA_AGENCY USA_ATCF_ID USA_LAT USA_LON USA_RECORD USA_STATUS USA_WIND USA_PRES USA_SSHS USA_R34_NE USA_R34_SE USA_R34_SW USA_R34_NW USA_R50_NE USA_R50_SE USA_R50_SW USA_R50_NW USA_R64_NE USA_R64_SE USA_R64_SW USA_R64_NW USA_POCI USA_ROCI USA_RMW USA_EYE TOKYO_LAT TOKYO_LON TOKYO_GRADE TOKYO_WIND TOKYO_PRES TOKYO_R50_DIR TOKYO_R50_LONG TOKYO_R50_SHORT TOKYO_R30_DIR TOKYO_R30_LONG TOKYO_R30_SHORT TOKYO_LAND CMA_LAT CMA_LON CMA_CAT CMA_WIND CMA_PRES HKO_LAT HKO_LON HKO_CAT HKO_WIND HKO_PRES NEWDELHI_LAT NEWDELHI_LON NEWDELHI_GRADE NEWDELHI_WIND NEWDELHI_PRES NEWDELHI_CI NEWDELHI_DP NEWDELHI_POCI REUNION_LAT REUNION_LON REUNION_TYPE REUNION_WIND REUNION_PRES REUNION_TNUM REUNION_CI REUNION_RMW REUNION_R34_NE REUNION_R34_SE REUNION_R34_SW REUNION_R34_NW REUNION_R50_NE REUNION_R50_SE REUNION_R50_SW REUNION_R50_NW REUNION_R64_NE REUNION_R64_SE REUNION_R64_SW REUNION_R64_NW BOM_LAT BOM_LON BOM_TYPE BOM_WIND BOM_PRES BOM_TNUM BOM_CI BOM_RMW BOM_R34_NE BOM_R34_SE BOM_R34_SW BOM_R34_NW BOM_R50_NE BOM_R50_SE BOM_R50_SW BOM_R50_NW BOM_R64_NE BOM_R64_SE BOM_R64_SW BOM_R64_NW BOM_ROCI BOM_POCI BOM_EYE BOM_POS_METHOD BOM_PRES_METHOD NADI_LAT NADI_LON NADI_CAT NADI_WIND NADI_PRES WELLINGTON_LAT WELLINGTON_LON WELLINGTON_WIND WELLINGTON_PRES DS824_LAT DS824_LON DS824_STAGE DS824_WIND DS824_PRES TD9636_LAT TD9636_LON TD9636_STAGE TD9636_WIND TD9636_PRES TD9635_LAT TD9635_LON TD9635_WIND TD9635_PRES TD9635_ROCI NEUMANN_LAT NEUMANN_LON NEUMANN_CLASS NEUMANN_WIND NEUMANN_PRES MLC_LAT MLC_LON MLC_CLASS MLC_WIND MLC_PRES USA_GUST BOM_GUST BOM_GUST_PER REUNION_GUST REUNION_GUST_PER USA_SEAHGT USA_SEARAD_NE USA_SEARAD_SE USA_SEARAD_SW USA_SEARAD_NW STORM_SPEED STORM_DIR
1998216N09260 1998 44 EP MM FRANK 1998-08-04 00:00:00 NR 8.70000 -100.300 main 861 843 O_____________ jtwc_ep EP071998 8.70000 -100.300 20 -1 20 299
1998216N09260 1998 44 EP MM FRANK 1998-08-04 03:00:00 NR 9.18542 -101.202 main 843 825 P_____________ EP071998 9.18542 -101.202 22 -1 20 299
1998216N09260 1998 44 EP MM FRANK 1998-08-04 06:00:00 NR 9.70000 -102.100 main 825 801 O_____________ jtwc_ep EP071998 9.70000 -102.100 25 -1 21 301
1998216N09260 1998 44 EP MM FRANK 1998-08-04 09:00:00 NR 10.2574 -102.980 main 800 783 P_____________ EP071998 10.2574 -102.980 25 -1 20 303
1998216N09260 1998 44 EP MM FRANK 1998-08-04 12:00:00 NR 10.8000 -103.800 main 783 765 O_____________ jtwc_ep EP071998 10.8000 -103.800 25 -1 19 304
1998216N09260 1998 44 EP MM FRANK 1998-08-04 15:00:00 NR 11.3173 -104.552 main 770 754 P_____________ EP071998 11.3173 -104.552 25 -1 16 303
1998216N09260 1998 44 EP MM FRANK 1998-08-04 18:00:00 NR 11.7000 -105.200 main 757 750 O_____________ jtwc_ep EP071998 11.7000 -105.200 25 -1 13 295
1998216N09260 1998 44 EP MM FRANK 1998-08-04 21:00:00 NR 11.8521 -105.715 main 754 754 P_____________ EP071998 11.8521 -105.715 25 -1 10 282
1998216N09260 1998 44 EP MM FRANK 1998-08-05 00:00:00 NR 11.9000 -106.200 main 772 772 O_____________ jtwc_ep EP071998 11.9000 -106.200 25 -1 10 277
1998216N09260 1998 44 EP MM FRANK 1998-08-05 03:00:00 NR 11.9774 -106.778 main 789 789 P_____________ EP071998 11.9774 -106.778 25 -1 12 280
1998216N09260 1998 44 EP MM FRANK 1998-08-05 06:00:00 NR 12.1000 -107.400 main 810 810 O_____________ jtwc_ep EP071998 12.1000 -107.400 25 -1 13 284
1998216N09260 1998 44 EP MM FRANK 1998-08-05 09:00:00 NR 12.2976 -108.073 main 833 830 P_____________ EP071998 12.2976 -108.073 25 -1 14 291
1998216N09260 1998 44 EP MM FRANK 1998-08-05 12:00:00 NR 12.6000 -108.700 main 847 838 O_____________ jtwc_ep EP071998 12.6000 -108.700 25 -1 13 303
1998216N09260 1998 44 EP MM FRANK 1998-08-05 15:00:00 NR 13.0049 -109.203 main 838 818 P_____________ EP071998 13.0049 -109.203 25 -1 13 316
1998216N09260 1998 44 EP MM FRANK 1998-08-05 18:00:00 NR 13.5000 -109.600 main 818 796 O_____________ jtwc_ep EP071998 13.5000 -109.600 25 -1 13 326
1998216N09260 1998 44 EP MM FRANK 1998-08-05 21:00:00 NR 14.0349 -109.923 main 796 770 P_____________ EP071998 14.0349 -109.923 25 -1 13 332
1998216N09260 1998 44 EP MM FRANK 1998-08-06 00:00:00 NR 14.6000 -110.200 main 770 746 O_____________ jtwc_ep EP071998 14.6000 -110.200 25 -1 13 334
1998216N09260 1998 44 EP MM FRANK 1998-08-06 03:00:00 NR 15.1574 -110.493 main 746 733 P_____________ EP071998 15.1574 -110.493 27 -1 13 332
1998216N09260 1998 44 EP MM FRANK 1998-08-06 06:00:00 NR 15.7000 -110.800 main 734 725 O_____________ jtwc_ep EP071998 15.7000 -110.800 30 -1 13 329
1998216N09260 1998 44 EP MM FRANK 1998-08-06 09:00:00 NR 16.2300 -111.157 main 736 710 P_____________ EP071998 16.2300 -111.157 30 -1 12 326
1998216N09260 1998 44 EP MM FRANK 1998-08-06 12:00:00 TS 16.7000 -111.500 30 1009 hurdat_epa main 710 683 O_____________ hurdat_epa EP071998 16.7000 -111.500 TD 30 1009 -1 10 324
1998216N09260 1998 44 EP MM FRANK 1998-08-06 15:00:00 TS 17.0601 -111.792 main 675 649 P_____________ EP071998 17.0725 -111.795 TD 30 1008 -1 9 326
1998216N09260 1998 44 EP MM FRANK 1998-08-06 18:00:00 TS 17.4000 -112.000 30 1008 hurdat_epa main 649 621 O_____________ hurdat_epa EP071998 17.4000 -112.000 TD 30 1008 -1 8 338
1998216N09260 1998 44 EP MM FRANK 1998-08-06 21:00:00 TS 17.7574 -112.080 main 610 579 P_____________ EP071998 17.7574 -112.080 TD 30 1007 -1 7 352
1998216N09260 1998 44 EP MM FRANK 1998-08-07 00:00:00 TS 18.1000 -112.100 30 1007 hurdat_epa main 579 552 O_____________ hurdat_epa EP071998 18.1000 -112.100 TD 30 1007 -1 6 353
1998216N09260 1998 44 EP MM FRANK 1998-08-07 03:00:00 TS 18.3925 -112.157 main 552 522 P_____________ EP071998 18.3925 -112.157 TD 30 1006 -1 6 351
1998216N09260 1998 44 EP MM FRANK 1998-08-07 06:00:00 TS 18.7000 -112.200 30 1006 hurdat_epa main 522 482 O_____________ hurdat_epa EP071998 18.7000 -112.200 TD 30 1006 -1 7 356
1998216N09260 1998 44 EP MM FRANK 1998-08-07 09:00:00 TS 19.0850 -112.215 main 482 443 P_____________ EP071998 19.0850 -112.215 TD 30 1005 -1 8 359
1998216N09260 1998 44 EP MM FRANK 1998-08-07 12:00:00 TS 19.5000 -112.200 30 1005 hurdat_epa main 443 405 O_____________ hurdat_epa EP071998 19.5000 -112.200 TD 30 1005 -1 8 4
1998216N09260 1998 44 EP MM FRANK 1998-08-07 15:00:00 TS 19.8850 -112.150 main 405 362 P_____________ EP071998 19.8850 -112.150 TD 30 1005 -1 8 7
1998216N09260 1998 44 EP MM FRANK 1998-08-07 18:00:00 TS 20.3000 -112.100 30 1005 hurdat_epa main 362 319 O_____________ hurdat_epa EP071998 20.3000 -112.100 TD 30 1005 -1 9 3
1998216N09260 1998 44 EP MM FRANK 1998-08-07 21:00:00 TS 20.7850 -112.085 main 319 280 P_____________ EP071998 20.7850 -112.085 TD 32 1005 -1 10 359
1998216N09260 1998 44 EP MM FRANK 1998-08-08 00:00:00 TS 21.3000 -112.100 35 1005 hurdat_epa main 280 248 O_____________ hurdat_epa EP071998 21.3000 -112.100 TS 35 1005 0 10 358
1998216N09260 1998 44 EP MM FRANK 1998-08-08 03:00:00 TS 21.7925 -112.128 main 248 226 P_____________ EP071998 21.7925 -112.128 TS 35 1005 0 10 354
1998216N09260 1998 44 EP MM FRANK 1998-08-08 06:00:00 TS 22.3000 -112.200 35 1005 hurdat_epa main 226 189 O_____________ hurdat_epa EP071998 22.3000 -112.200 TS 35 1005 0 11 350
1998216N09260 1998 44 EP MM FRANK 1998-08-08 09:00:00 TS 22.8425 -112.328 main 189 142 P_____________ EP071998 22.8425 -112.328 TS 35 1005 0 11 346
1998216N09260 1998 44 EP MM FRANK 1998-08-08 12:00:00 TS 23.4000 -112.500 35 1005 hurdat_epa main 142 108 O_____________ hurdat_epa EP071998 23.4000 -112.500 TS 35 1005 0 12 343
1998216N09260 1998 44 EP MM FRANK 1998-08-08 15:00:00 TS 23.9650 -112.693 main 99 75 P_____________ EP071998 23.9650 -112.693 TS 35 1004 0 12 342
1998216N09260 1998 44 EP MM FRANK 1998-08-08 18:00:00 TS 24.5000 -112.900 35 1003 hurdat_epa main 78 74 O_____________ hurdat_epa EP071998 24.5000 -112.900 TS 35 1003 0 11 341
1998216N09260 1998 44 EP MM FRANK 1998-08-08 21:00:00 TS 24.9649 -113.078 main 93 93 P_____________ EP071998 24.9649 -113.078 TS 37 1002 0 10 338
1998216N09260 1998 44 EP MM FRANK 1998-08-09 00:00:00 TS 25.4000 -113.300 40 1001 hurdat_epa main 117 96 O_____________ hurdat_epa EP071998 25.4000 -113.300 TS 40 1001 0 10 332
1998216N09260 1998 44 EP MM FRANK 1998-08-09 03:00:00 TS 25.8574 -113.613 main 89 59 P_____________ EP071998 25.8574 -113.613 TS 37 1002 0 11 325
1998216N09260 1998 44 EP MM FRANK 1998-08-09 06:00:00 TS 26.3000 -114.000 35 1003 hurdat_epa main 59 48 O_____________ hurdat_epa EP071998 26.3000 -114.000 TS 35 1003 0 11 320
1998216N09260 1998 44 EP MM FRANK 1998-08-09 09:00:00 TS 26.7073 -114.420 main 48 37 P_____________ EP071998 26.7073 -114.420 TS 32 1004 -1 11 315
1998216N09260 1998 44 EP MM FRANK 1998-08-09 12:00:00 TS 27.1000 -114.900 30 1006 hurdat_epa main 50 44 O_____________ hurdat_epa EP071998 27.1000 -114.900 TD 30 1006 -1 12 312
1998216N09260 1998 44 EP MM FRANK 1998-08-09 15:00:00 TS 27.5075 -115.435 main 45 45 P_____________ EP071998 27.5075 -115.435 TD 27 1007 -1 13 309
1998216N09260 1998 44 EP MM FRANK 1998-08-09 18:00:00 TS 27.9000 -116.000 25 1008 hurdat_epa main 98 98 O_____________ hurdat_epa EP071998 27.9000 -116.000 TD 25 1008 -1 12 307
1998216N09260 1998 44 EP MM FRANK 1998-08-09 21:00:00 TS 28.2603 -116.554 main 166 166 P_____________ EP071998 28.2603 -116.554 TD 25 1008 -1 12 306
1998216N09260 1998 44 EP MM FRANK 1998-08-10 00:00:00 TS 28.6000 -117.100 25 1009 hurdat_epa main 190 O_____________ hurdat_epa EP071998 28.6000 -117.100 TD 25 1009 -1 12 305

IBTrACS Databaseについて

本データベースは、米国NOAAが公開する1842年以降の世界の熱帯低気圧のベストトラックデータアーカイブInternational Best Track Archive for Climate Stewardship (IBTrACS)を、ウェブで閲覧しやすい形式に変換したものです。

最終更新日:2021-10-08